Time,TemperatureF,DewpointF,PressureIn,WindDirection,WindDirectionDegrees,WindSpeedMPH,WindSpeedGustMPH,Humidity,HourlyPrecipIn,Conditions,Clouds,dailyrainin,SoftwareType,DateUTC
2013-03-07 00:01:00,34.0,29.0,29.49,NNW,336,3.0,6.0,82,0.00,,,0.04,,2013-03-07 07:01:00,
2013-03-07 00:11:00,34.0,29.0,29.49,NNW,336,3.0,6.0,82,0.00,,,0.04,,2013-03-07 07:11:00,
2013-03-07 00:21:00,34.0,29.0,29.46,NNW,336,1.0,3.0,82,0.00,,,0.04,,2013-03-07 07:21:00,
2013-03-07 00:31:00,34.0,29.0,29.46,NNW,336,1.0,3.0,82,0.00,,,0.04,,2013-03-07 07:31:00,
2013-03-07 00:41:00,34.0,29.0,29.46,NNW,336,1.0,3.0,82,0.00,,,0.04,,2013-03-07 07:41:00,
2013-03-07 00:52:00,34.0,29.0,29.47,WNW,298,1.0,5.0,83,0.00,,,0.04,,2013-03-07 07:52:00,
2013-03-07 01:01:00,33.0,28.0,29.48,WNW,289,2.0,7.0,83,0.00,,,0.04,,2013-03-07 08:01:00,
2013-03-07 01:11:00,33.0,28.0,29.48,WNW,289,2.0,7.0,83,0.00,,,0.04,,2013-03-07 08:11:00,
2013-03-07 01:22:00,33.0,28.0,29.49,NW,319,3.0,7.0,83,0.00,,,0.04,,2013-03-07 08:22:00,
2013-03-07 01:31:00,33.0,29.0,29.51,NNW,334,4.0,9.0,84,0.00,,,0.04,,2013-03-07 08:31:00,
2013-03-07 01:43:00,33.0,29.0,29.51,NNW,334,4.0,9.0,84,0.00,,,0.04,,2013-03-07 08:43:00,
2013-03-07 01:53:00,32.0,27.0,29.52,North,356,3.0,6.0,83,0.00,,,0.04,,2013-03-07 08:53:00,
2013-03-07 02:01:00,32.0,27.0,29.52,NW,305,1.0,6.0,83,0.00,,,0.04,,2013-03-07 09:01:00,
2013-03-07 02:11:00,32.0,27.0,29.52,NW,305,1.0,6.0,83,0.00,,,0.04,,2013-03-07 09:11:00,
2013-03-07 02:21:00,32.0,27.0,29.51,NW,309,1.0,3.0,82,0.00,,,0.04,,2013-03-07 09:21:00,
2013-03-07 02:31:00,32.0,27.0,29.52,NW,309,2.0,6.0,82,0.00,,,0.04,,2013-03-07 09:31:00,
2013-03-07 02:41:00,32.0,27.0,29.52,NW,309,2.0,6.0,82,0.00,,,0.04,,2013-03-07 09:41:00,
2013-03-07 02:52:00,32.0,27.0,29.52,NW,312,2.0,7.0,82,0.00,,,0.04,,2013-03-07 09:52:00,
2013-03-07 03:01:00,32.0,27.0,29.51,NW,308,3.0,6.0,82,0.00,,,0.04,,2013-03-07 10:01:00,
2013-03-07 03:11:00,32.0,27.0,29.51,NW,308,3.0,6.0,82,0.00,,,0.04,,2013-03-07 10:11:00,
2013-03-07 03:21:00,31.0,26.0,29.52,NW,312,4.0,8.0,81,0.00,,,0.04,,2013-03-07 10:21:00,
2013-03-07 03:31:00,31.0,26.0,29.52,WNW,299,3.0,10.0,82,0.00,,,0.04,,2013-03-07 10:31:00,
2013-03-07 03:41:00,31.0,26.0,29.52,WNW,299,3.0,10.0,82,0.00,,,0.04,,2013-03-07 10:41:00,
2013-03-07 03:52:00,31.0,26.0,29.52,WNW,295,2.0,6.0,82,0.00,,,0.04,,2013-03-07 10:52:00,
2013-03-07 04:01:00,31.0,26.0,29.51,WNW,301,2.0,6.0,81,0.00,,,0.04,,2013-03-07 11:01:00,
2013-03-07 04:11:00,31.0,26.0,29.51,WNW,301,2.0,6.0,81,0.00,,,0.04,,2013-03-07 11:11:00,
2013-03-07 04:22:00,31.0,26.0,29.51,NW,309,3.0,8.0,81,0.00,,,0.04,,2013-03-07 11:22:00,
2013-03-07 04:32:00,31.0,26.0,29.52,WNW,297,3.0,7.0,81,0.00,,,0.04,,2013-03-07 11:32:00,
2013-03-07 04:41:00,31.0,26.0,29.52,WNW,297,3.0,7.0,81,0.00,,,0.04,,2013-03-07 11:41:00,
2013-03-07 04:53:00,30.0,25.0,29.52,NW,319,1.0,3.0,81,0.00,,,0.04,,2013-03-07 11:53:00,
2013-03-07 05:01:00,30.0,25.0,29.52,NW,316,2.0,7.0,81,0.00,,,0.04,,2013-03-07 12:01:00,
2013-03-07 05:11:00,30.0,25.0,29.52,NW,316,2.0,7.0,81,0.00,,,0.04,,2013-03-07 12:11:00,
2013-03-07 05:21:00,31.0,26.0,29.53,NW,307,5.0,10.0,82,0.00,,,0.04,,2013-03-07 12:21:00,
2013-03-07 05:32:00,30.0,25.0,29.54,NW,323,4.0,12.0,82,0.00,,,0.04,,2013-03-07 12:32:00,
2013-03-07 05:42:00,30.0,25.0,29.54,NW,323,4.0,12.0,82,0.00,,,0.04,,2013-03-07 12:42:00,
2013-03-07 05:52:00,30.0,25.0,29.54,North,359,6.0,10.0,82,0.00,,,0.04,,2013-03-07 12:52:00,
2013-03-07 06:01:00,30.0,25.0,29.54,North,349,5.0,8.0,83,0.00,,,0.04,,2013-03-07 13:01:00,
2013-03-07 06:11:00,30.0,25.0,29.54,North,349,5.0,8.0,83,0.00,,,0.04,,2013-03-07 13:11:00,
2013-03-07 06:22:00,30.0,25.0,29.54,NNW,343,5.0,10.0,82,0.00,,,0.04,,2013-03-07 13:22:00,
2013-03-07 06:31:00,30.0,25.0,29.54,NW,308,1.0,3.0,82,0.00,,,0.04,,2013-03-07 13:31:00,
2013-03-07 06:41:00,30.0,25.0,29.54,NW,308,1.0,3.0,82,0.00,,,0.04,,2013-03-07 13:41:00,
2013-03-07 06:53:00,30.0,25.0,29.55,NNW,342,2.0,7.0,81,0.00,,,0.04,,2013-03-07 13:53:00,
2013-03-07 07:01:00,30.0,25.0,29.56,NNW,337,1.0,6.0,80,0.00,,,0.04,,2013-03-07 14:01:00,
2013-03-07 07:11:00,30.0,25.0,29.56,NNW,337,1.0,6.0,80,0.00,,,0.04,,2013-03-07 14:11:00,
2013-03-07 07:21:00,30.0,25.0,29.57,WNW,282,0.0,0.0,80,0.00,,,0.04,,2013-03-07 14:21:00,
2013-03-07 07:31:00,30.0,25.0,29.57,WNW,292,0.0,3.0,80,0.00,,,0.04,,2013-03-07 14:31:00,
2013-03-07 07:41:00,30.0,25.0,29.57,WNW,292,0.0,3.0,80,0.00,,,0.04,,2013-03-07 14:41:00,
2013-03-07 07:53:00,30.0,24.0,29.58,WNW,291,0.0,5.0,79,0.00,,,0.04,,2013-03-07 14:53:00,
2013-03-07 08:01:00,30.0,24.0,29.58,WNW,282,0.0,0.0,79,0.00,,,0.04,,2013-03-07 15:01:00,
2013-03-07 08:11:00,30.0,24.0,29.58,WNW,282,0.0,0.0,79,0.00,,,0.04,,2013-03-07 15:11:00,
2013-03-07 08:21:00,30.0,24.0,29.62,WNW,282,0.0,0.0,79,0.00,,,0.04,,2013-03-07 15:21:00,
2013-03-07 08:31:00,30.0,24.0,29.62,WNW,282,0.0,1.0,79,0.00,,,0.04,,2013-03-07 15:31:00,
2013-03-07 08:41:00,30.0,24.0,29.62,WNW,282,0.0,1.0,79,0.00,,,0.04,,2013-03-07 15:41:00,
2013-03-07 08:52:00,30.0,24.0,29.62,WNW,301,1.0,5.0,78,0.00,,,0.04,,2013-03-07 15:52:00,
2013-03-07 09:01:00,31.0,25.0,29.62,WNW,299,1.0,3.0,78,0.00,,,0.04,,2013-03-07 16:01:00,
2013-03-07 09:11:00,31.0,25.0,29.62,WNW,299,1.0,3.0,78,0.00,,,0.04,,2013-03-07 16:11:00,
2013-03-07 09:21:00,31.0,25.0,29.63,NW,305,1.0,3.0,78,0.00,,,0.04,,2013-03-07 16:21:00,
2013-03-07 09:31:00,31.0,25.0,29.63,WNW,284,2.0,6.0,77,0.00,,,0.04,,2013-03-07 16:31:00,
2013-03-07 09:41:00,31.0,25.0,29.63,WNW,284,2.0,6.0,77,0.00,,,0.04,,2013-03-07 16:41:00,
2013-03-07 09:52:00,31.0,24.0,29.63,NW,304,2.0,6.0,76,0.00,,,0.04,,2013-03-07 16:52:00,
2013-03-07 10:01:00,32.0,25.0,29.63,WNW,288,0.0,3.0,74,0.00,,,0.04,,2013-03-07 17:01:00,
2013-03-07 10:11:00,32.0,25.0,29.63,WNW,288,0.0,3.0,74,0.00,,,0.04,,2013-03-07 17:11:00,
2013-03-07 10:21:00,32.0,25.0,29.64,NNW,342,3.0,7.0,74,0.01,,,0.05,,2013-03-07 17:21:00,
2013-03-07 10:31:00,33.0,25.0,29.64,NNW,332,0.0,2.0,73,0.01,,,0.05,,2013-03-07 17:31:00,
2013-03-07 10:42:00,33.0,25.0,29.64,NNW,332,0.0,2.0,73,0.01,,,0.05,,2013-03-07 17:42:00,
2013-03-07 11:01:00,34.0,25.0,29.62,WNW,303,5.0,7.0,70,0.01,,,0.05,,2013-03-07 18:01:00,
2013-03-07 11:11:00,34.0,25.0,29.62,WNW,303,5.0,7.0,70,0.01,,,0.05,,2013-03-07 18:11:00,
2013-03-07 11:21:00,34.0,26.0,29.62,NNW,330,3.0,7.0,71,0.00,,,0.05,,2013-03-07 18:21:00,
2013-03-07 11:31:00,35.0,27.0,29.61,NW,316,3.0,6.0,71,0.00,,,0.05,,2013-03-07 18:31:00,
2013-03-07 11:41:00,35.0,27.0,29.61,NW,316,3.0,6.0,71,0.00,,,0.05,,2013-03-07 18:41:00,
2013-03-07 11:52:00,36.0,26.0,29.59,NW,308,5.0,7.0,68,0.00,,,0.05,,2013-03-07 18:52:00,
2013-03-07 12:01:00,37.0,27.0,29.59,NW,315,3.0,7.0,67,0.00,,,0.05,,2013-03-07 19:01:00,
2013-03-07 12:11:00,37.0,27.0,29.59,NW,317,5.0,7.0,66,0.00,,,0.05,,2013-03-07 19:11:00,
2013-03-07 12:21:00,37.0,27.0,29.59,NW,317,5.0,7.0,66,0.00,,,0.05,,2013-03-07 19:21:00,
2013-03-07 12:31:00,38.0,27.0,29.58,NW,307,3.0,7.0,65,0.00,,,0.05,,2013-03-07 19:31:00,
2013-03-07 12:42:00,38.0,27.0,29.58,NW,307,3.0,7.0,65,0.00,,,0.05,,2013-03-07 19:42:00,
2013-03-07 12:52:00,39.0,27.0,29.56,NW,309,3.0,6.0,63,0.00,,,0.05,,2013-03-07 19:52:00,
2013-03-07 13:11:00,40.0,27.0,29.55,NW,320,6.0,8.0,60,0.00,,,0.05,,2013-03-07 20:11:00,
2013-03-07 13:21:00,41.0,28.0,29.54,NW,314,6.0,8.0,60,0.00,,,0.05,,2013-03-07 20:21:00,
2013-03-07 13:31:00,42.0,28.0,29.52,NW,322,3.0,8.0,57,0.00,,,0.05,,2013-03-07 20:31:00,
2013-03-07 13:41:00,42.0,28.0,29.52,NW,322,3.0,8.0,57,0.00,,,0.05,,2013-03-07 20:41:00,
2013-03-07 13:53:00,43.0,27.0,29.50,NW,323,3.0,6.0,52,0.01,,,0.06,,2013-03-07 20:53:00,
2013-03-07 14:01:00,44.0,26.0,29.48,NW,318,5.0,7.0,49,0.01,,,0.06,,2013-03-07 21:01:00,
2013-03-07 14:11:00,44.0,26.0,29.48,NW,318,5.0,7.0,49,0.01,,,0.06,,2013-03-07 21:11:00,
2013-03-07 14:21:00,43.0,26.0,29.49,NW,311,4.0,7.0,50,0.01,,,0.06,,2013-03-07 21:21:00,
2013-03-07 14:31:00,43.0,27.0,29.49,WNW,292,2.0,10.0,53,0.01,,,0.06,,2013-03-07 21:31:00,
2013-03-07 14:41:00,43.0,27.0,29.49,WNW,292,2.0,10.0,53,0.01,,,0.06,,2013-03-07 21:41:00,
2013-03-07 14:52:00,43.0,27.0,29.49,NNW,328,3.0,8.0,52,0.00,,,0.06,,2013-03-07 21:52:00,
2013-03-07 15:01:00,43.0,26.0,29.49,NW,309,4.0,8.0,51,0.00,,,0.06,,2013-03-07 22:01:00,
2013-03-07 15:11:00,43.0,26.0,29.49,NW,309,4.0,8.0,51,0.00,,,0.06,,2013-03-07 22:11:00,
2013-03-07 15:21:00,43.0,26.0,29.49,NW,322,3.0,7.0,51,0.00,,,0.06,,2013-03-07 22:21:00,
2013-03-07 15:31:00,43.0,25.0,29.50,NNW,336,5.0,7.0,48,0.00,,,0.06,,2013-03-07 22:31:00,
2013-03-07 15:41:00,43.0,25.0,29.50,NNW,336,5.0,7.0,48,0.00,,,0.06,,2013-03-07 22:41:00,
2013-03-07 15:52:00,43.0,25.0,29.49,NNW,329,3.0,7.0,49,0.00,,,0.06,,2013-03-07 22:52:00,
2013-03-07 16:01:00,42.0,25.0,29.49,NW,309,5.0,10.0,50,0.00,,,0.06,,2013-03-07 23:01:00,
2013-03-07 16:11:00,42.0,25.0,29.49,NW,309,5.0,10.0,50,0.00,,,0.06,,2013-03-07 23:11:00,
2013-03-07 16:21:00,42.0,26.0,29.51,WNW,301,3.0,8.0,52,0.00,,,0.06,,2013-03-07 23:21:00,
2013-03-07 16:31:00,42.0,26.0,29.50,West,279,3.0,8.0,53,0.00,,,0.06,,2013-03-07 23:31:00,
2013-03-07 16:41:00,42.0,26.0,29.50,West,279,3.0,8.0,53,0.00,,,0.06,,2013-03-07 23:41:00,
2013-03-07 16:53:00,41.0,26.0,29.50,West,281,5.0,14.0,55,0.00,,,0.06,,2013-03-07 23:53:00,
2013-03-07 17:01:00,41.0,27.0,29.50,West,278,2.0,12.0,56,0.00,,,0.06,,2013-03-08 00:01:00,
2013-03-07 17:11:00,41.0,27.0,29.50,West,278,2.0,12.0,56,0.00,,,0.06,,2013-03-08 00:11:00,
2013-03-07 17:22:00,41.0,27.0,29.52,NW,304,2.0,5.0,57,0.00,,,0.06,,2013-03-08 00:22:00,
2013-03-07 17:32:00,40.0,26.0,29.52,NW,305,3.0,6.0,57,0.00,,,0.06,,2013-03-08 00:32:00,
2013-03-07 17:42:00,40.0,26.0,29.52,NW,305,3.0,6.0,57,0.00,,,0.06,,2013-03-08 00:42:00,
2013-03-07 17:53:00,40.0,26.0,29.52,NW,306,3.0,7.0,57,0.00,,,0.06,,2013-03-08 00:53:00,
2013-03-07 18:01:00,40.0,26.0,29.53,NW,304,3.0,7.0,57,0.00,,,0.06,,2013-03-08 01:01:00,
2013-03-07 18:11:00,40.0,26.0,29.53,NW,304,3.0,7.0,57,0.00,,,0.06,,2013-03-08 01:11:00,
2013-03-07 18:21:00,39.0,25.0,29.55,NW,322,2.0,7.0,57,0.00,,,0.06,,2013-03-08 01:21:00,
2013-03-07 18:31:00,39.0,25.0,29.55,NW,308,1.0,6.0,58,0.00,,,0.06,,2013-03-08 01:31:00,
2013-03-07 18:41:00,39.0,25.0,29.55,NW,308,1.0,6.0,58,0.00,,,0.06,,2013-03-08 01:41:00,
2013-03-07 18:52:00,39.0,26.0,29.55,NW,306,3.0,5.0,59,0.00,,,0.06,,2013-03-08 01:52:00,
2013-03-07 19:01:00,38.0,25.0,29.56,WNW,302,1.0,6.0,59,0.00,,,0.06,,2013-03-08 02:01:00,
2013-03-07 19:11:00,38.0,25.0,29.57,NW,316,1.0,5.0,60,0.00,,,0.06,,2013-03-08 02:11:00,
2013-03-07 19:21:00,38.0,25.0,29.57,NW,316,1.0,5.0,60,0.00,,,0.06,,2013-03-08 02:21:00,
2013-03-07 19:31:00,37.0,24.0,29.57,WNW,303,1.0,5.0,60,0.00,,,0.06,,2013-03-08 02:31:00,
2013-03-07 19:41:00,37.0,24.0,29.57,WNW,303,1.0,5.0,60,0.00,,,0.06,,2013-03-08 02:41:00,
2013-03-07 19:52:00,38.0,26.0,29.58,WNW,294,0.0,2.0,61,0.00,,,0.06,,2013-03-08 02:52:00,
2013-03-07 20:01:00,37.0,25.0,29.58,WNW,295,2.0,3.0,62,0.00,,,0.06,,2013-03-08 03:01:00,
2013-03-07 20:11:00,37.0,25.0,29.58,WNW,295,2.0,3.0,62,0.00,,,0.06,,2013-03-08 03:11:00,
2013-03-07 20:21:00,37.0,25.0,29.57,NW,306,5.0,7.0,62,0.00,,,0.06,,2013-03-08 03:21:00,
2013-03-07 20:31:00,37.0,26.0,29.57,NW,308,1.0,3.0,63,0.00,,,0.06,,2013-03-08 03:31:00,
2013-03-07 20:41:00,37.0,26.0,29.57,NW,308,1.0,3.0,63,0.00,,,0.06,,2013-03-08 03:41:00,
2013-03-07 20:52:00,37.0,25.0,29.57,WNW,289,2.0,7.0,62,0.00,,,0.06,,2013-03-08 03:52:00,
2013-03-07 21:01:00,36.0,25.0,29.59,North,0,4.0,7.0,63,0.00,,,0.06,,2013-03-08 04:01:00,
2013-03-07 21:11:00,36.0,25.0,29.59,North,0,4.0,7.0,63,0.00,,,0.06,,2013-03-08 04:11:00,
2013-03-07 21:21:00,36.0,25.0,29.58,WNW,291,2.0,3.0,64,0.00,,,0.06,,2013-03-08 04:21:00,
2013-03-07 21:31:00,36.0,25.0,29.59,WNW,291,0.0,0.0,64,0.00,,,0.06,,2013-03-08 04:31:00,
2013-03-07 21:42:00,36.0,25.0,29.59,WNW,291,0.0,0.0,64,0.00,,,0.06,,2013-03-08 04:42:00,
2013-03-07 21:52:00,36.0,26.0,29.58,NW,315,1.0,5.0,66,0.00,,,0.06,,2013-03-08 04:52:00,
2013-03-07 22:01:00,35.0,25.0,29.57,NW,306,3.0,7.0,66,0.00,,,0.06,,2013-03-08 05:01:00,
2013-03-07 22:11:00,35.0,25.0,29.57,NW,306,3.0,7.0,66,0.00,,,0.06,,2013-03-08 05:11:00,
2013-03-07 22:22:00,35.0,25.0,29.58,NW,304,3.0,7.0,67,0.00,,,0.05,,2013-03-08 05:22:00,
2013-03-07 22:31:00,35.0,26.0,29.59,NW,326,0.0,2.0,68,0.00,,,0.04,,2013-03-08 05:31:00,
2013-03-07 22:42:00,35.0,26.0,29.59,NW,326,0.0,2.0,68,0.00,,,0.04,,2013-03-08 05:42:00,
2013-03-07 22:52:00,35.0,26.0,29.59,NW,316,2.0,5.0,69,0.00,,,0.02,,2013-03-08 05:52:00,
2013-03-07 23:01:00,35.0,26.0,29.58,NW,314,1.0,6.0,70,0.00,,,0.02,,2013-03-08 06:01:00,
2013-03-07 23:11:00,35.0,26.0,29.58,NW,314,1.0,6.0,70,0.00,,,0.02,,2013-03-08 06:11:00,
2013-03-07 23:21:00,34.0,26.0,29.57,NW,304,3.0,10.0,73,0.00,,,0.02,,2013-03-08 06:21:00,
2013-03-07 23:31:00,34.0,27.0,29.56,NW,312,2.0,6.0,74,0.00,,,0.02,,2013-03-08 06:31:00,
2013-03-07 23:41:00,34.0,27.0,29.56,NW,312,2.0,6.0,74,0.00,,,0.02,,2013-03-08 06:41:00,
2013-03-07 23:52:00,34.0,27.0,29.56,WNW,282,1.0,5.0,75,0.00,,,0.02,,2013-03-08 06:52:00,